Time;durP1;ratioP1;P1;durP2;ratioP2;P2;SDS_P1;SDS_P2;PMS_P1;PMS_P2;Temp;Humidity;BMP_temperature;BMP_pressure;BME280_temperature;BME280_humidity;BME280_pressure;Samples;Min_cycle;Max_cycle;Signal;HPM_P1;HPM_P2
2023/10/20 00:03:02;;;;;;;55.80;43.20;;;;;;;10.08;88.60;96797.42;224852;1289;22633;-74
2023/10/20 00:08:15;;;;;;;58.20;44.60;;;;;;;10.05;88.86;96800.75;224864;1289;22564;-73
2023/10/20 00:13:38;;;;;;;51.80;41.50;;;;;;;10.06;88.85;96809.15;224839;1289;22548;-73
2023/10/20 00:18:42;;;;;;;54.90;41.70;;;;;;;10.04;88.92;96800.66;224793;1286;22578;-73
2023/10/20 00:23:47;;;;;;;51.40;38.90;;;;;;;10.07;88.94;96803.73;224792;1278;22589;-74
2023/10/20 00:29:01;;;;;;;55.70;43.60;;;;;;;10.09;89.04;96790.84;224767;1288;22650;-73
2023/10/20 00:34:04;;;;;;;52.90;42.10;;;;;;;10.09;88.88;96782.92;224764;1289;22595;-73
2023/10/20 00:40:08;;;;;;;53.60;41.60;;;;;;;10.11;88.92;96770.17;224753;1289;22589;-73
2023/10/20 00:45:19;;;;;;;61.90;44.20;;;;;;;10.13;89.10;96759.05;224808;1286;24230;-72
2023/10/20 00:50:31;;;;;;;52.30;41.30;;;;;;;10.17;88.87;96752.05;224811;1286;25421;-73
2023/10/20 00:55:43;;;;;;;55.30;42.90;;;;;;;10.19;89.06;96758.04;224716;1288;22549;-73
2023/10/20 01:01:11;;;;;;;56.70;44.90;;;;;;;10.22;89.13;96753.98;224855;1289;22584;-73
2023/10/20 01:06:51;;;;;;;;;;;;;;;;;;;;;
2023/10/20 01:12:07;;;;;;;54.80;41.70;;;;;;;10.12;88.66;96717.96;224585;1291;22677;-74
2023/10/20 01:17:10;;;;;;;58.50;44.70;;;;;;;10.07;88.98;96711.70;224656;1289;22580;-73
2023/10/20 01:23:09;;;;;;;61.00;46.30;;;;;;;10.07;89.53;96699.36;224518;1291;22559;-72
2023/10/20 01:28:16;;;;;;;52.90;42.60;;;;;;;10.05;89.30;96686.61;224682;1289;22560;-73
2023/10/20 01:33:30;;;;;;;54.10;43.10;;;;;;;10.03;89.15;96665.39;224733;1289;22559;-73
2023/10/20 01:38:33;;;;;;;57.50;43.80;;;;;;;9.98;89.19;96664.47;224754;1289;25422;-73
2023/10/20 01:43:40;;;;;;;52.90;41.60;;;;;;;9.96;89.25;96679.29;222371;1289;3240927;-73
2023/10/20 01:49:09;;;;;;;54.50;42.10;;;;;;;9.94;89.47;96680.70;224863;1289;23042;-73
2023/10/20 01:54:20;;;;;;;54.20;41.30;;;;;;;9.96;89.62;96674.29;224829;1286;22487;-74
2023/10/20 02:00:15;;;;;;;53.20;43.90;;;;;;;10.00;89.67;96670.58;224796;1289;23052;-73
2023/10/20 02:05:47;;;;;;;52.10;41.30;;;;;;;10.05;89.51;96677.80;224757;1289;23422;-73
2023/10/20 02:10:51;;;;;;;53.40;42.00;;;;;;;10.10;89.82;96678.09;224816;1289;25715;-75
2023/10/20 02:16:16;;;;;;;53.70;42.50;;;;;;;10.15;89.68;96671.37;224826;1289;22535;-74
2023/10/20 02:21:25;;;;;;;52.70;42.30;;;;;;;10.20;89.54;96662.89;224777;1289;23056;-73
2023/10/20 02:26:44;;;;;;;;;;;;;;;;;;;;;
2023/10/20 02:32:24;;;;;;;49.30;39.20;;;;;;;10.25;89.79;96643.97;224807;1289;22563;-73
2023/10/20 02:38:19;;;;;;;55.60;44.20;;;;;;;10.32;89.86;96637.86;224805;1289;22563;-73
2023/10/20 02:43:45;;;;;;;53.20;42.60;;;;;;;10.36;89.85;96633.13;224809;1289;22746;-73
2023/10/20 02:49:42;;;;;;;;;;;;;;;;;;;;;
2023/10/20 02:54:58;;;;;;;54.20;41.80;;;;;;;10.38;89.76;96635.06;224789;1279;22575;-73
2023/10/20 03:00:15;;;;;;;49.00;39.10;;;;;;;10.41;89.74;96638.52;224771;1289;22535;-74
2023/10/20 03:05:34;;;;;;;53.00;40.80;;;;;;;10.45;89.76;96634.12;224809;1289;24269;-73
2023/10/20 03:10:41;;;;;;;47.20;36.50;;;;;;;10.51;89.79;96620.02;224825;1287;22552;-73
2023/10/20 03:15:54;;;;;;;48.50;37.70;;;;;;;10.54;89.57;96619.41;224763;1289;24199;-73
2023/10/20 03:21:25;;;;;;;49.60;38.40;;;;;;;10.54;89.66;96600.92;224800;1289;22559;-73
2023/10/20 03:27:46;;;;;;;;;;;;;;;;;;;;;
2023/10/20 03:33:13;;;;;;;47.40;37.60;;;;;;;10.62;89.95;96581.56;224527;1292;22565;-73
2023/10/20 03:39:36;;;;;;;;;;;;;;;;;;;;;
2023/10/20 03:44:53;;;;;;;47.10;37.30;;;;;;;10.65;89.72;96598.67;224534;1292;22555;-73
2023/10/20 03:50:26;;;;;;;47.50;38.30;;;;;;;10.68;89.74;96605.58;224522;1292;24260;-73
2023/10/20 03:56:23;;;;;;;;;;;;;;;;;;;;;
2023/10/20 04:01:35;;;;;;;45.10;36.00;;;;;;;10.75;89.85;96588.20;223763;1293;22594;-73
2023/10/20 04:07:06;;;;;;;50.50;36.60;;;;;;;10.78;89.78;96577.41;224398;1276;22552;-72
2023/10/20 04:12:47;;;;;;;;;;;;;;;;;;;;;
2023/10/20 04:18:03;;;;;;;46.90;36.00;;;;;;;10.75;89.69;96566.06;224736;1289;22562;-73
2023/10/20 04:23:12;;;;;;;48.50;37.60;;;;;;;10.75;89.60;96574.15;224708;1289;22610;-72
2023/10/20 04:28:20;;;;;;;47.20;36.60;;;;;;;10.78;89.86;96560.14;224840;1289;22601;-72
2023/10/20 04:56:19;;;;;;;41.00;32.80;;;;;;;10.83;89.92;96539.91;223892;1295;22555;-74
2023/10/20 05:00:47;;;;;;;40.10;31.70;;;;;;;10.85;90.02;96549.55;224697;1289;22557;-73
2023/10/20 05:06:05;;;;;;;42.50;33.70;;;;;;;10.89;90.01;96547.28;224863;1285;22571;-72
2023/10/20 05:11:09;;;;;;;39.00;31.10;;;;;;;10.91;89.92;96553.81;224780;1289;22545;-73
2023/10/20 05:16:14;;;;;;;37.30;32.30;;;;;;;10.93;89.94;96556.43;224782;1286;22582;-74
2023/10/20 05:21:25;;;;;;;40.90;32.60;;;;;;;10.96;89.99;96554.46;224846;1289;22552;-74
2023/10/20 05:26:32;;;;;;;39.50;31.60;;;;;;;10.97;90.04;96551.83;224798;1289;22686;-73
2023/10/20 05:31:38;;;;;;;43.00;34.70;;;;;;;10.97;89.92;96543.17;224735;1289;22565;-71
2023/10/20 05:36:48;;;;;;;36.50;31.70;;;;;;;10.96;90.10;96547.17;224795;1289;22663;-74
2023/10/20 05:42:01;;;;;;;43.70;34.20;;;;;;;11.01;90.30;96539.02;224792;1289;22619;-74
2023/10/20 05:47:16;;;;;;;44.30;34.00;;;;;;;11.02;90.05;96552.04;224799;1289;22544;-72
2023/10/20 05:52:42;;;;;;;;;;;;;;;;;;;;;
2023/10/20 05:59:11;;;;;;;39.20;31.40;;;;;;;11.07;90.03;96551.80;224671;1275;22649;-75
2023/10/20 06:04:22;;;;;;;40.60;32.30;;;;;;;11.09;89.98;96547.39;224356;1283;22555;-75
2023/10/20 06:10:44;;;;;;;;;;;;;;;;;;;;;
2023/10/20 06:16:20;;;;;;;;;;;;;;;;;;;;;
2023/10/20 06:21:35;;;;;;;41.50;31.20;;;;;;;11.30;89.97;96554.70;224552;1269;22587;-77
2023/10/20 06:26:38;;;;;;;39.40;31.60;;;;;;;11.35;90.00;96539.12;224467;1278;22557;-74
2023/10/20 06:32:25;;;;;;;36.20;28.40;;;;;;;11.42;90.01;96529.41;224491;1279;22572;-74
2023/10/20 06:38:29;;;;;;;35.00;28.00;;;;;;;11.49;89.98;96538.69;224463;1283;22608;-75
2023/10/20 06:43:35;;;;;;;35.00;27.50;;;;;;;11.55;89.89;96543.05;224220;1280;22612;-75
2023/10/20 06:48:49;;;;;;;38.10;28.70;;;;;;;11.62;89.95;96524.80;224226;1278;22561;-74
2023/10/20 06:54:35;;;;;;;34.10;27.10;;;;;;;11.75;90.11;96511.98;224363;1279;22563;-75
2023/10/20 07:00:06;;;;;;;35.20;26.70;;;;;;;11.92;90.06;96497.58;224325;1285;22579;-72
2023/10/20 07:05:31;;;;;;;33.20;25.90;;;;;;;12.05;89.83;96487.04;224237;1283;22598;-73
2023/10/20 07:11:07;;;;;;;32.30;26.90;;;;;;;12.15;89.53;96480.61;224267;1283;22583;-74
2023/10/20 07:16:38;;;;;;;34.30;27.40;;;;;;;12.23;89.52;96483.52;224459;1285;22630;-75
2023/10/20 07:22:33;;;;;;;31.30;26.10;;;;;;;12.31;89.44;96480.98;224490;1281;22612;-75
2023/10/20 07:27:52;;;;;;;27.50;23.10;;;;;;;12.55;89.71;96467.98;224404;1268;23085;-75
2023/10/20 07:33:23;;;;;;;30.50;24.10;;;;;;;12.75;89.42;96461.45;224253;1280;22564;-75
2023/10/20 07:38:51;;;;;;;;;;;;;;;;;;;;;
2023/10/20 07:43:58;;;;;;;28.70;23.60;;;;;;;13.03;89.09;96469.04;224277;1286;22579;-74
2023/10/20 07:49:01;;;;;;;30.70;25.20;;;;;;;13.11;88.90;96464.45;224247;1267;22555;-74
2023/10/20 07:54:04;;;;;;;27.70;23.60;;;;;;;13.16;88.66;96451.51;224086;1284;22614;-75
2023/10/20 07:59:46;;;;;;;;;;;;;;;;;;;;;
2023/10/20 08:06:07;;;;;;;25.50;22.30;;;;;;;13.31;88.40;96440.62;224256;1283;22570;-75
2023/10/20 08:11:30;;;;;;;28.70;21.60;;;;;;;13.45;88.47;96443.60;224152;1289;22562;-75
2023/10/20 08:16:44;;;;;;;29.20;22.50;;;;;;;13.59;88.47;96440.59;224276;1283;22617;-76
2023/10/20 08:21:47;;;;;;;29.00;22.30;;;;;;;13.70;88.09;96434.43;224215;1283;22633;-77
2023/10/20 08:27:14;;;;;;;26.00;20.50;;;;;;;13.80;87.95;96429.72;224396;1283;25409;-74
2023/10/20 08:32:18;;;;;;;25.50;20.50;;;;;;;13.91;88.08;96416.29;224403;1270;22571;-76
2023/10/20 08:37:46;;;;;;;22.70;18.50;;;;;;;14.04;88.15;96417.48;224410;1269;22552;-76
2023/10/20 08:42:49;;;;;;;19.30;17.20;;;;;;;14.15;87.77;96410.39;224272;1286;24036;-77
2023/10/20 08:48:03;;;;;;;22.20;16.50;;;;;;;14.31;87.87;96399.79;224336;1289;25465;-75
2023/10/20 08:53:20;;;;;;;19.40;16.00;;;;;;;14.55;87.75;96390.50;224471;1283;22565;-76
2023/10/20 08:58:31;;;;;;;19.40;15.70;;;;;;;14.78;87.47;96375.30;224431;1273;22585;-75
2023/10/20 09:03:54;;;;;;;20.60;16.20;;;;;;;14.97;86.98;96372.75;224163;1282;24408;-76
2023/10/20 09:09:24;;;;;;;21.70;17.30;;;;;;;15.16;86.42;96369.02;224104;1270;22564;-76
2023/10/20 09:14:43;;;;;;;18.60;16.60;;;;;;;15.35;86.07;96369.16;224150;1267;23271;-75
2023/10/20 09:20:14;;;;;;;18.50;15.70;;;;;;;15.56;85.97;96359.91;224302;1287;22575;-78
2023/10/20 09:25:50;;;;;;;;;;;;;;;;;;;;;
2023/10/20 09:31:22;;;;;;;19.70;16.10;;;;;;;15.83;84.93;96342.96;224559;1277;24234;-80
2023/10/20 09:36:57;;;;;;;20.30;17.20;;;;;;;15.84;84.92;96341.89;224586;1289;22571;-78
2023/10/20 09:42:29;;;;;;;21.40;17.50;;;;;;;15.83;84.65;96332.90;224625;1283;22584;-80
2023/10/20 09:47:54;;;;;;;;;;;;;;;;;;;;;
2023/10/20 09:54:22;;;;;;;;;;;;;;;;;;;;;
2023/10/20 10:00:50;;;;;;;19.10;16.40;;;;;;;16.21;84.86;96307.89;223947;1289;22582;-81
2023/10/20 10:06:30;;;;;;;;;;;;;;;;;;;;;
2023/10/20 10:12:09;;;;;;;19.80;14.40;;;;;;;16.64;84.48;96311.04;224222;1276;23675;-79
2023/10/20 10:17:12;;;;;;;16.60;13.40;;;;;;;16.71;84.25;96316.08;224350;1283;23114;-78
2023/10/20 10:22:17;;;;;;;16.90;13.60;;;;;;;16.75;84.28;96318.85;224201;1273;23254;-76
2023/10/20 10:27:36;;;;;;;16.00;12.90;;;;;;;16.84;84.07;96314.50;224378;1273;22585;-81
2023/10/20 10:32:47;;;;;;;18.20;13.30;;;;;;;16.96;84.10;96316.16;224401;1283;21896;-78
2023/10/20 10:38:21;;;;;;;18.80;15.00;;;;;;;17.13;83.81;96304.25;224519;1284;24278;-78
2023/10/20 10:43:30;;;;;;;15.40;12.40;;;;;;;17.38;84.03;96305.36;224338;1283;22562;-77
2023/10/20 10:48:52;;;;;;;;;;;;;;;;;;;;;
2023/10/20 10:53:57;;;;;;;15.60;12.30;;;;;;;17.68;83.42;96307.33;224517;1283;22559;-77
2023/10/20 10:59:19;;;;;;;16.30;12.80;;;;;;;17.69;83.23;96313.19;224459;1283;22522;-77
2023/10/20 11:04:45;;;;;;;16.10;13.90;;;;;;;17.59;83.02;96307.95;224556;1269;23316;-77
2023/10/20 11:09:51;;;;;;;16.70;13.30;;;;;;;17.55;83.45;96305.34;224373;1273;22584;-73
2023/10/20 11:15:06;;;;;;;16.20;13.30;;;;;;;17.59;83.67;96303.52;224500;1267;22596;-76
2023/10/20 11:20:21;;;;;;;17.00;12.60;;;;;;;17.64;83.66;96294.81;224279;1273;22591;-78
2023/10/20 11:25:28;;;;;;;14.70;12.40;;;;;;;17.57;83.44;96298.75;224429;1286;22578;-76
2023/10/20 11:30:37;;;;;;;17.20;13.40;;;;;;;17.43;83.28;96288.30;224403;1283;25959;-77
2023/10/20 11:35:39;;;;;;;19.30;13.80;;;;;;;17.32;83.59;96279.14;224466;1270;22572;-75
2023/10/20 11:40:49;;;;;;;18.20;13.50;;;;;;;17.16;83.54;96271.49;224508;1282;25953;-81
2023/10/20 11:45:58;;;;;;;14.10;11.80;;;;;;;17.05;83.88;96264.16;224531;1282;22555;-78
2023/10/20 11:51:21;;;;;;;15.20;11.90;;;;;;;16.94;84.05;96260.64;224424;1286;22608;-78
2023/10/20 11:56:25;;;;;;;14.30;10.50;;;;;;;16.87;84.47;96256.96;224246;1283;25480;-79
2023/10/20 12:01:35;;;;;;;13.70;11.90;;;;;;;16.86;84.48;96249.09;224265;1283;22568;-79
2023/10/20 12:06:38;;;;;;;16.70;11.40;;;;;;;16.83;84.62;96241.70;224083;1283;22557;-80
2023/10/20 12:11:41;;;;;;;13.80;11.80;;;;;;;16.87;85.08;96243.63;224335;1270;22582;-80
2023/10/20 12:16:56;;;;;;;16.40;12.30;;;;;;;16.93;85.08;96251.30;224327;1267;22583;-80
2023/10/20 12:21:58;;;;;;;17.40;11.60;;;;;;;16.95;84.86;96247.81;224378;1282;22638;-77
2023/10/20 12:27:06;;;;;;;12.60;10.90;;;;;;;16.98;85.07;96236.79;224502;1286;22546;-77
2023/10/20 12:32:12;;;;;;;16.50;11.70;;;;;;;17.00;84.86;96230.41;224443;1283;22558;-77
2023/10/20 12:37:19;;;;;;;13.50;11.30;;;;;;;16.99;85.14;96219.23;224469;1282;22574;-77
2023/10/20 12:42:24;;;;;;;13.80;10.50;;;;;;;17.01;85.05;96205.85;224504;1283;22670;-78
2023/10/20 12:47:29;;;;;;;12.60;10.40;;;;;;;17.12;85.42;96197.92;224491;1283;22571;-74
2023/10/20 12:52:37;;;;;;;13.50;10.30;;;;;;;17.26;85.46;96191.55;224528;1289;22623;-75
2023/10/20 12:57:40;;;;;;;12.90;10.60;;;;;;;17.45;85.56;96187.61;224573;1282;22577;-76
2023/10/20 13:02:43;;;;;;;16.60;10.10;;;;;;;17.65;85.33;96181.44;224592;1282;22551;-75
2023/10/20 13:07:50;;;;;;;13.80;10.70;;;;;;;17.79;85.04;96181.73;224685;1285;22586;-75
2023/10/20 13:12:53;;;;;;;13.30;9.40;;;;;;;17.85;84.68;96180.15;224519;1283;23773;-74
2023/10/20 13:18:06;;;;;;;12.90;10.00;;;;;;;17.89;84.60;96181.36;224475;1280;22581;-76
2023/10/20 13:23:29;;;;;;;13.50;10.10;;;;;;;17.91;84.37;96176.23;224489;1289;22536;-75
2023/10/20 13:28:34;;;;;;;14.50;10.00;;;;;;;17.90;84.17;96176.73;223954;1292;24367;-75
2023/10/20 13:33:38;;;;;;;15.00;10.10;;;;;;;17.91;84.20;96182.86;223805;1275;23466;-76
2023/10/20 13:39:07;;;;;;;11.10;9.90;;;;;;;17.96;84.34;96186.27;223958;1286;22582;-73
2023/10/20 13:44:34;;;;;;;15.40;10.40;;;;;;;18.03;84.18;96180.52;223836;1279;358757;-75
2023/10/20 13:49:38;;;;;;;14.40;10.10;;;;;;;18.05;83.97;96179.52;223855;1292;22591;-74
2023/10/20 13:54:43;;;;;;;14.50;10.30;;;;;;;18.08;83.80;96173.01;223844;1283;22588;-73
2023/10/20 13:59:46;;;;;;;14.00;10.70;;;;;;;18.10;83.80;96168.60;223910;1285;22574;-73
2023/10/20 14:05:22;;;;;;;16.50;10.20;;;;;;;18.07;83.50;96163.98;224219;1289;22900;-72
2023/10/20 14:10:30;;;;;;;12.40;9.30;;;;;;;17.94;83.33;96170.93;224508;1285;22612;-72
2023/10/20 14:15:55;;;;;;;11.20;9.40;;;;;;;17.83;83.51;96164.48;224504;1282;24262;-73
2023/10/20 14:21:16;;;;;;;11.80;10.10;;;;;;;17.80;83.77;96163.48;224248;1286;22661;-73
2023/10/20 14:26:40;;;;;;;12.90;9.30;;;;;;;17.80;83.87;96159.48;224299;1283;23020;-72
2023/10/20 14:31:48;;;;;;;11.90;9.20;;;;;;;17.79;83.99;96162.48;224373;1283;22602;-72
2023/10/20 14:36:59;;;;;;;14.60;9.40;;;;;;;17.81;83.94;96179.02;224658;1286;22608;-72
2023/10/20 14:42:08;;;;;;;15.70;9.30;;;;;;;17.79;83.78;96188.88;224686;1283;22556;-72
2023/10/20 14:47:14;;;;;;;15.20;9.80;;;;;;;17.78;83.86;96186.55;224668;1283;22635;-73
2023/10/20 14:52:45;;;;;;;;;;;;;;;;;;;;;
2023/10/20 14:58:03;;;;;;;18.00;12.80;;;;;;;17.72;83.90;96186.48;224741;1289;22906;-73
2023/10/20 15:03:27;;;;;;;14.60;10.00;;;;;;;17.62;83.65;96185.60;224835;1288;22554;-73
2023/10/20 15:08:56;;;;;;;;;;;;;;;;;;;;;
2023/10/20 15:14:30;;;;;;;15.00;9.90;;;;;;;17.34;83.88;96201.82;224860;1288;22578;-74
2023/10/20 15:19:39;;;;;;;15.00;10.20;;;;;;;17.19;83.95;96201.96;224741;1286;22536;-72
2023/10/20 15:25:02;;;;;;;15.60;10.80;;;;;;;17.08;84.09;96202.95;224688;1267;22662;-73
2023/10/20 15:30:38;;;;;;;13.20;10.60;;;;;;;16.96;84.35;96205.48;224665;1267;22589;-72
2023/10/20 15:36:12;;;;;;;13.80;10.30;;;;;;;16.86;84.56;96205.98;224744;1285;22584;-74
2023/10/20 15:41:33;;;;;;;23.50;15.20;;;;;;;16.75;84.66;96213.20;224739;1289;22555;-73
2023/10/20 15:47:17;;;;;;;17.20;11.60;;;;;;;16.66;85.11;96206.02;224740;1276;22594;-73
2023/10/20 15:52:25;;;;;;;17.20;11.40;;;;;;;16.61;85.24;96212.52;224723;1283;22586;-73
2023/10/20 15:57:33;;;;;;;21.40;14.90;;;;;;;16.53;85.36;96202.92;224667;1286;25900;-71
2023/10/20 16:02:36;;;;;;;19.00;12.90;;;;;;;16.42;85.20;96205.75;224690;1286;22560;-72
2023/10/20 16:07:46;;;;;;;18.20;12.50;;;;;;;16.33;85.39;96208.13;224735;1286;25528;-72
2023/10/20 16:13:08;;;;;;;18.20;12.50;;;;;;;16.24;85.71;96203.77;224704;1289;22568;-72
2023/10/20 16:18:28;;;;;;;17.40;13.10;;;;;;;16.16;85.84;96206.13;224744;1282;22578;-73
2023/10/20 16:23:49;;;;;;;23.00;14.00;;;;;;;16.09;85.72;96207.42;224680;1288;24260;-73
2023/10/20 16:29:06;;;;;;;20.80;15.00;;;;;;;16.06;86.24;96210.92;224756;1288;22608;-73
2023/10/20 16:34:12;;;;;;;23.30;16.80;;;;;;;16.04;86.25;96211.00;224838;1286;22566;-73
2023/10/20 16:39:17;;;;;;;19.30;15.00;;;;;;;16.00;86.22;96211.88;224749;1283;23087;-73
2023/10/20 16:44:21;;;;;;;21.30;15.10;;;;;;;15.97;86.42;96201.04;224781;1286;22588;-72
2023/10/20 16:49:57;;;;;;;24.40;17.90;;;;;;;15.94;86.56;96193.30;224539;1289;22564;-71
2023/10/20 16:55:05;;;;;;;31.90;18.30;;;;;;;15.89;86.77;96196.60;224746;1288;22568;-73
2023/10/20 17:00:32;;;;;;;21.50;16.00;;;;;;;15.84;86.74;96202.58;224659;1286;22619;-73
2023/10/20 17:06:03;;;;;;;30.60;18.00;;;;;;;15.77;86.76;96201.04;224745;1283;22603;-72
2023/10/20 17:11:21;;;;;;;24.60;16.70;;;;;;;15.73;87.23;96190.50;224703;1283;22554;-73
2023/10/20 17:16:29;;;;;;;26.60;18.40;;;;;;;15.73;87.33;96203.71;224766;1288;22568;-73
2023/10/20 17:21:43;;;;;;;28.30;17.50;;;;;;;15.77;87.56;96199.45;224731;1289;22543;-74
2023/10/20 17:27:19;;;;;;;24.20;16.80;;;;;;;15.80;87.47;96200.43;224708;1286;22678;-72
2023/10/20 17:32:34;;;;;;;26.20;17.30;;;;;;;15.80;87.45;96205.86;224757;1284;22556;-72
2023/10/20 17:37:46;;;;;;;27.50;16.80;;;;;;;15.82;87.32;96217.77;224692;1286;22559;-72
2023/10/20 17:42:53;;;;;;;22.60;16.40;;;;;;;15.80;87.04;96228.18;224747;1277;22559;-72
2023/10/20 17:48:00;;;;;;;23.30;16.70;;;;;;;15.76;87.14;96246.31;224751;1283;22564;-72
2023/10/20 17:53:27;;;;;;;23.00;16.80;;;;;;;15.74;87.11;96257.69;224732;1289;22553;-73
2023/10/20 17:58:50;;;;;;;26.70;18.60;;;;;;;15.70;86.98;96265.20;224752;1273;22556;-72
2023/10/20 18:04:00;;;;;;;27.80;18.60;;;;;;;15.70;87.31;96255.46;224642;1285;22564;-73
2023/10/20 18:09:08;;;;;;;25.10;17.70;;;;;;;15.73;87.32;96251.27;224714;1282;22593;-73
2023/10/20 18:14:11;;;;;;;25.60;17.80;;;;;;;15.74;87.10;96245.91;224663;1285;22557;-75
2023/10/20 18:19:13;;;;;;;28.60;16.90;;;;;;;15.73;87.04;96255.09;224716;1289;22540;-73
2023/10/20 18:24:16;;;;;;;29.10;17.10;;;;;;;15.72;87.25;96262.04;224725;1283;22578;-73
2023/10/20 18:29:20;;;;;;;24.70;16.80;;;;;;;15.72;87.12;96258.52;224794;1281;22552;-73
2023/10/20 18:34:24;;;;;;;28.60;17.40;;;;;;;15.71;87.20;96252.83;224780;1283;22583;-73
2023/10/20 18:39:27;;;;;;;28.10;17.00;;;;;;;15.70;87.23;96256.63;224733;1286;22567;-73
2023/10/20 18:44:30;;;;;;;25.20;16.50;;;;;;;15.68;87.10;96252.13;224763;1281;22584;-73
2023/10/20 18:49:37;;;;;;;25.00;16.00;;;;;;;15.68;87.01;96252.33;224725;1286;22685;-72
2023/10/20 18:54:42;;;;;;;23.10;15.70;;;;;;;15.67;86.95;96253.67;224762;1286;22572;-72
2023/10/20 19:00:01;;;;;;;25.50;17.00;;;;;;;15.60;86.75;96257.14;224668;1285;22552;-72
2023/10/20 19:05:04;;;;;;;30.60;17.10;;;;;;;15.51;86.81;96261.95;224779;1286;22546;-71
2023/10/20 19:10:11;;;;;;;27.20;18.40;;;;;;;15.47;86.93;96272.23;224788;1288;22561;-71
2023/10/20 19:15:18;;;;;;;24.80;17.30;;;;;;;15.48;87.07;96273.14;224655;1280;22570;-72
2023/10/20 19:20:22;;;;;;;27.10;18.70;;;;;;;15.51;87.58;96266.30;224761;1282;22547;-73
2023/10/20 19:25:28;;;;;;;29.00;19.40;;;;;;;15.57;87.15;96270.06;224712;1286;24354;-74
2023/10/20 19:30:48;;;;;;;31.10;21.10;;;;;;;15.55;86.76;96272.09;224667;1282;22573;-73
2023/10/20 19:36:05;;;;;;;34.00;22.20;;;;;;;15.48;86.55;96275.48;224728;1288;22571;-75
2023/10/20 19:41:17;;;;;;;34.40;23.50;;;;;;;15.42;86.62;96274.16;224628;1289;22565;-72
2023/10/20 19:46:25;;;;;;;33.80;23.10;;;;;;;15.36;86.82;96274.11;224705;1283;22543;-72
2023/10/20 19:51:30;;;;;;;38.80;23.20;;;;;;;15.30;86.74;96273.67;224689;1286;22556;-72
2023/10/20 19:56:33;;;;;;;34.00;22.30;;;;;;;15.28;86.83;96267.98;224764;1286;22564;-72
2023/10/20 20:01:41;;;;;;;35.60;23.10;;;;;;;15.31;87.31;96269.63;224727;1286;22561;-72
2023/10/20 20:06:44;;;;;;;37.20;23.10;;;;;;;15.37;87.24;96273.94;224739;1277;22571;-73
2023/10/20 20:12:13;;;;;;;40.10;23.40;;;;;;;15.42;87.14;96282.00;224779;1286;22562;-73
2023/10/20 20:17:21;;;;;;;33.90;21.20;;;;;;;15.49;86.82;96283.84;224744;1285;24077;-73
2023/10/20 20:22:28;;;;;;;29.20;19.80;;;;;;;15.52;86.65;96280.02;224742;1289;23036;-73
2023/10/20 20:27:34;;;;;;;35.70;19.80;;;;;;;15.53;86.70;96285.08;224721;1288;25022;-74
2023/10/20 20:32:46;;;;;;;35.70;20.80;;;;;;;15.51;86.26;96289.40;224639;1289;22574;-73
2023/10/20 20:37:54;;;;;;;32.20;21.20;;;;;;;15.47;86.06;96294.91;224781;1286;22592;-73
2023/10/20 20:42:58;;;;;;;31.80;20.00;;;;;;;15.42;86.19;96299.34;224792;1283;22678;-72
2023/10/20 20:48:09;;;;;;;32.80;19.10;;;;;;;15.42;86.41;96306.58;224736;1289;24239;-72
2023/10/20 20:53:36;;;;;;;32.10;18.00;;;;;;;15.42;86.41;96310.24;224644;1289;25086;-72
2023/10/20 20:58:42;;;;;;;34.60;17.40;;;;;;;15.39;86.05;96312.83;224715;1289;22566;-71
2023/10/20 21:03:45;;;;;;;25.80;16.50;;;;;;;15.34;85.89;96318.29;224651;1281;22631;-72
2023/10/20 21:09:01;;;;;;;28.30;17.20;;;;;;;15.28;86.30;96310.85;224697;1288;22557;-71
2023/10/20 21:14:23;;;;;;;29.40;16.90;;;;;;;15.23;86.30;96312.80;224730;1283;22553;-71
2023/10/20 21:19:37;;;;;;;31.80;17.40;;;;;;;15.19;86.42;96311.54;224680;1286;22602;-71
2023/10/20 21:24:48;;;;;;;32.90;17.10;;;;;;;15.15;86.49;96303.11;224706;1288;22641;-71
2023/10/20 21:30:36;;;;;;;33.90;17.20;;;;;;;15.10;86.35;96304.91;224683;1277;22552;-73
2023/10/20 21:35:40;;;;;;;30.00;17.20;;;;;;;15.06;86.56;96308.98;224797;1284;22561;-71
2023/10/20 21:40:55;;;;;;;31.00;18.80;;;;;;;15.02;86.47;96309.11;224670;1269;22582;-72
2023/10/20 21:46:09;;;;;;;33.40;19.30;;;;;;;15.01;86.65;96294.17;224767;1288;22555;-72
2023/10/20 21:51:15;;;;;;;36.50;22.80;;;;;;;15.03;86.80;96292.94;224640;1289;22594;-73
2023/10/20 21:56:19;;;;;;;32.90;20.20;;;;;;;15.02;86.61;96303.42;224682;1284;22558;-73
2023/10/20 22:01:22;;;;;;;35.40;19.00;;;;;;;14.98;86.68;96305.36;224715;1288;22559;-72
2023/10/20 22:06:35;;;;;;;31.00;16.60;;;;;;;14.98;86.62;96307.65;224795;1288;22565;-72
2023/10/20 22:11:49;;;;;;;27.90;15.70;;;;;;;15.03;86.73;96310.91;224769;1286;22568;-72
2023/10/20 22:16:52;;;;;;;28.30;15.10;;;;;;;15.11;86.84;96315.50;224783;1286;22595;-73
2023/10/20 22:22:03;;;;;;;30.20;15.50;;;;;;;15.21;86.73;96319.89;224729;1289;22587;-72
2023/10/20 22:27:13;;;;;;;24.30;13.10;;;;;;;15.28;86.72;96321.91;224713;1287;24580;-73
2023/10/20 22:32:16;;;;;;;25.50;11.50;;;;;;;15.36;86.43;96324.23;224775;1283;22560;-73
2023/10/20 22:37:26;;;;;;;24.20;12.00;;;;;;;15.45;86.60;96332.94;224694;1289;22669;-73
2023/10/20 22:42:38;;;;;;;22.10;10.60;;;;;;;15.55;86.41;96332.88;224634;1286;23014;-73
2023/10/20 22:47:40;;;;;;;27.00;10.70;;;;;;;15.66;86.07;96338.01;224555;1289;26028;-72
2023/10/20 22:52:46;;;;;;;23.70;9.40;;;;;;;15.77;85.94;96344.71;224482;1289;22553;-73
2023/10/20 22:57:49;;;;;;;23.70;9.90;;;;;;;15.86;85.95;96350.87;224688;1286;22551;-72
2023/10/20 23:02:52;;;;;;;26.20;9.50;;;;;;;15.95;85.77;96362.23;224661;1273;22623;-72
2023/10/20 23:08:06;;;;;;;23.60;9.50;;;;;;;16.04;85.98;96367.47;224810;1288;22561;-71
2023/10/20 23:13:08;;;;;;;23.30;9.30;;;;;;;16.14;85.88;96379.16;224660;1286;22617;-72
2023/10/20 23:18:11;;;;;;;24.40;9.00;;;;;;;16.26;85.52;96390.27;224748;1285;22564;-72
2023/10/20 23:23:17;;;;;;;22.70;7.60;;;;;;;16.39;85.77;96399.71;224740;1288;22562;-72
2023/10/20 23:28:30;;;;;;;24.60;6.80;;;;;;;16.56;85.63;96397.29;224762;1282;24291;-73
2023/10/20 23:33:37;;;;;;;23.30;7.60;;;;;;;16.70;85.31;96407.48;224732;1286;22669;-72
2023/10/20 23:38:53;;;;;;;21.60;6.40;;;;;;;16.82;85.15;96426.08;224810;1288;22552;-72
2023/10/20 23:43:58;;;;;;;19.30;6.30;;;;;;;16.91;84.56;96433.32;224703;1285;22555;-72
2023/10/20 23:49:01;;;;;;;17.40;6.20;;;;;;;16.96;84.21;96443.71;224754;1286;22539;-72
2023/10/20 23:54:54;;;;;;;19.00;7.40;;;;;;;16.97;84.00;96454.70;224694;1281;22564;-72
